Time;durP1;ratioP1;P1;durP2;ratioP2;P2;SDS_P1;SDS_P2;PMS_P1;PMS_P2;Temp;Humidity;BMP_temperature;BMP_pressure;BME280_temperature;BME280_humidity;BME280_pressure;Samples;Min_cycle;Max_cycle;Signal;HPM_P1;HPM_P2
2021/08/20 00:02:18;;;;;;;1.02;0.80;;;24.90;52.50;;;;;;5041816;28;20033;-63
2021/08/20 00:04:43;;;;;;;1.90;0.90;;;24.90;52.50;;;;;;5039327;28;20032;-69
2021/08/20 00:07:09;;;;;;;0.70;0.70;;;24.90;52.50;;;;;;5040992;28;20564;-62
2021/08/20 00:09:34;;;;;;;1.20;0.73;;;24.90;52.50;;;;;;5053445;28;20025;-67
2021/08/20 00:12:00;;;;;;;1.50;0.80;;;24.80;52.40;;;;;;5037330;28;20439;-65
2021/08/20 00:14:26;;;;;;;1.20;0.82;;;24.80;52.50;;;;;;5044288;28;20325;-63
2021/08/20 00:16:52;;;;;;;0.95;0.70;;;24.80;52.50;;;;;;5038561;28;20029;-66
2021/08/20 00:19:17;;;;;;;1.13;0.80;;;24.80;52.50;;;;;;5045565;28;20087;-64
2021/08/20 00:21:44;;;;;;;1.70;0.80;;;24.80;52.50;;;;;;5049462;28;20103;-69
2021/08/20 00:24:14;;;;;;;1.27;0.80;;;24.80;52.50;;;;;;5049771;28;20040;-62
2021/08/20 00:26:40;;;;;;;1.05;0.90;;;24.80;52.50;;;;;;5052070;28;20147;-65
2021/08/20 00:29:05;;;;;;;1.17;0.80;;;24.80;52.50;;;;;;5045187;28;20056;-65
2021/08/20 00:31:31;;;;;;;1.25;0.80;;;24.80;52.50;;;;;;5037911;28;20124;-63
2021/08/20 00:33:58;;;;;;;1.27;1.00;;;24.80;52.50;;;;;;5043999;28;20024;-65
2021/08/20 00:36:23;;;;;;;1.48;0.80;;;24.80;53.00;;;;;;5045867;28;20552;-64
2021/08/20 00:38:49;;;;;;;0.70;0.70;;;24.80;52.50;;;;;;5044585;28;20108;-66
2021/08/20 00:41:15;;;;;;;1.15;0.77;;;24.80;52.50;;;;;;5044999;28;20043;-68
2021/08/20 00:43:42;;;;;;;1.15;0.73;;;24.80;52.60;;;;;;5046080;28;20048;-64
2021/08/20 00:46:09;;;;;;;1.20;0.70;;;24.80;52.60;;;;;;5051319;28;20135;-69
2021/08/20 00:48:34;;;;;;;1.00;0.80;;;24.80;52.60;;;;;;5046343;28;20426;-64
2021/08/20 00:51:19;;;;;;;1.23;0.80;;;24.80;52.60;;;;;;5045191;28;20025;-69
2021/08/20 00:53:47;;;;;;;0.70;0.70;;;24.70;52.60;;;;;;5040735;28;20087;-69
2021/08/20 00:56:13;;;;;;;0.88;0.68;;;24.80;52.60;;;;;;5047372;28;20547;-66
2021/08/20 00:58:39;;;;;;;0.93;0.70;;;24.80;52.60;;;;;;5044785;28;20025;-63
2021/08/20 01:01:05;;;;;;;0.90;0.70;;;24.80;52.60;;;;;;5045928;28;20128;-64
2021/08/20 01:03:32;;;;;;;1.45;0.90;;;24.80;52.60;;;;;;5046710;28;20037;-64
2021/08/20 01:05:59;;;;;;;1.20;0.90;;;24.70;52.60;;;;;;5045754;28;20021;-64
2021/08/20 01:08:26;;;;;;;0.90;0.70;;;24.70;52.60;;;;;;5045011;28;20028;-65
2021/08/20 01:10:54;;;;;;;1.02;0.77;;;24.70;52.60;;;;;;5040236;28;20074;-65
2021/08/20 01:13:19;;;;;;;1.40;0.85;;;24.70;52.60;;;;;;5043181;28;20714;-64
2021/08/20 01:15:46;;;;;;;1.30;0.90;;;24.70;53.20;;;;;;5039724;28;20067;-65
2021/08/20 01:18:25;;;;;;;0.90;0.80;;;24.70;52.60;;;;;;5038196;28;20040;-64
2021/08/20 01:20:53;;;;;;;1.70;0.95;;;24.70;52.60;;;;;;5027454;28;20021;-64
2021/08/20 01:23:22;;;;;;;1.10;0.90;;;24.70;52.60;;;;;;5040056;28;20095;-62
2021/08/20 01:25:48;;;;;;;1.33;0.90;;;24.70;52.60;;;;;;5037929;28;20111;-63
2021/08/20 01:28:14;;;;;;;0.75;0.70;;;24.70;52.70;;;;;;5032482;28;20445;-65
2021/08/20 01:30:40;;;;;;;1.63;0.85;;;24.70;52.70;;;;;;5034779;28;20017;-63
2021/08/20 01:33:06;;;;;;;1.10;0.80;;;24.70;52.70;;;;;;5040972;28;20240;-63
2021/08/20 01:35:33;;;;;;;1.38;0.90;;;24.70;52.70;;;;;;5044701;28;20530;-69
2021/08/20 01:37:59;;;;;;;1.75;0.90;;;24.70;52.70;;;;;;5045678;28;20017;-66
2021/08/20 01:40:26;;;;;;;1.08;0.70;;;24.70;52.70;;;;;;5044071;28;20087;-69
2021/08/20 01:42:51;;;;;;;0.93;0.77;;;24.70;52.70;;;;;;5045441;28;20112;-65
2021/08/20 01:45:17;;;;;;;1.02;0.73;;;24.70;52.70;;;;;;5045950;28;20120;-64
2021/08/20 01:47:43;;;;;;;1.20;0.90;;;24.60;52.60;;;;;;5045550;28;20100;-65
2021/08/20 01:50:10;;;;;;;0.75;0.70;;;24.60;52.70;;;;;;5045606;28;20458;-64
2021/08/20 01:52:37;;;;;;;1.05;0.70;;;24.60;52.70;;;;;;5045696;28;20028;-68
2021/08/20 01:55:07;;;;;;;1.48;0.90;;;24.60;52.70;;;;;;5046628;28;20021;-69
2021/08/20 01:57:34;;;;;;;1.10;0.80;;;24.60;52.70;;;;;;5048073;28;20051;-64
2021/08/20 02:00:00;;;;;;;1.00;0.85;;;24.60;52.70;;;;;;5042529;28;20760;-62
2021/08/20 02:02:26;;;;;;;1.35;1.08;;;24.60;52.70;;;;;;5045092;28;20119;-65
2021/08/20 02:04:51;;;;;;;0.90;0.80;;;24.60;52.70;;;;;;5038408;28;20319;-69
2021/08/20 02:07:17;;;;;;;1.00;0.70;;;24.60;52.70;;;;;;5044822;28;20028;-64
2021/08/20 02:09:47;;;;;;;2.53;1.00;;;24.60;52.70;;;;;;5043891;28;20033;-65
2021/08/20 02:12:13;;;;;;;1.42;0.82;;;24.60;52.70;;;;;;5037335;28;20029;-69
2021/08/20 02:14:39;;;;;;;0.70;0.68;;;24.60;52.80;;;;;;5049169;28;20039;-65
2021/08/20 02:17:04;;;;;;;0.93;0.70;;;24.60;52.80;;;;;;5044339;28;20505;-68
2021/08/20 02:19:30;;;;;;;1.25;0.90;;;24.60;52.80;;;;;;5036741;28;20025;-62
2021/08/20 02:21:55;;;;;;;1.55;0.80;;;24.60;52.80;;;;;;5044955;28;20032;-64
2021/08/20 02:24:21;;;;;;;0.80;0.80;;;24.60;52.80;;;;;;5043235;28;20041;-64
2021/08/20 02:26:46;;;;;;;1.75;0.90;;;24.60;52.80;;;;;;5039101;28;20024;-66
2021/08/20 02:29:12;;;;;;;1.08;0.80;;;24.60;52.80;;;;;;5040432;28;20049;-65
2021/08/20 02:31:38;;;;;;;1.42;0.90;;;24.60;52.80;;;;;;5045653;28;20567;-65
2021/08/20 02:34:03;;;;;;;1.38;0.90;;;24.60;52.80;;;;;;5041398;28;20204;-64
2021/08/20 02:36:29;;;;;;;1.15;0.75;;;24.60;52.80;;;;;;5049491;28;20037;-68
2021/08/20 02:38:55;;;;;;;1.38;0.82;;;24.60;52.80;;;;;;5041511;28;20017;-67
2021/08/20 02:41:21;;;;;;;0.93;0.77;;;24.60;52.80;;;;;;5039918;28;20032;-69
2021/08/20 02:43:46;;;;;;;1.42;0.80;;;24.60;52.80;;;;;;5042978;28;20789;-64
2021/08/20 02:46:12;;;;;;;1.45;0.80;;;24.60;53.10;;;;;;5046185;28;20029;-64
2021/08/20 02:48:37;;;;;;;2.45;0.90;;;24.50;52.80;;;;;;5043828;28;20078;-64
2021/08/20 02:51:06;;;;;;;1.00;0.80;;;24.60;52.80;;;;;;5030229;28;20026;-65
2021/08/20 02:53:31;;;;;;;1.40;0.90;;;24.50;52.80;;;;;;5040371;28;20037;-64
2021/08/20 02:55:57;;;;;;;0.95;0.80;;;24.50;52.80;;;;;;5040070;28;20048;-65
2021/08/20 02:58:22;;;;;;;1.25;0.80;;;24.50;52.80;;;;;;5045021;28;20029;-63
2021/08/20 03:00:48;;;;;;;1.58;0.73;;;24.50;52.80;;;;;;5046189;28;20512;-65
2021/08/20 03:03:14;;;;;;;0.90;0.70;;;24.50;52.80;;;;;;5044209;28;20452;-64
2021/08/20 03:05:39;;;;;;;1.08;0.80;;;24.50;52.80;;;;;;5039742;28;20101;-68
2021/08/20 03:08:06;;;;;;;1.73;0.88;;;24.50;52.80;;;;;;5038954;28;20794;-65
2021/08/20 03:10:32;;;;;;;1.33;0.82;;;24.50;52.90;;;;;;5039271;28;20029;-68
2021/08/20 03:12:58;;;;;;;1.25;0.82;;;24.50;52.80;;;;;;5044461;28;20127;-68
2021/08/20 03:15:23;;;;;;;1.38;0.80;;;24.50;52.90;;;;;;5046520;28;20163;-64
2021/08/20 03:17:49;;;;;;;1.38;0.80;;;24.50;52.90;;;;;;5045590;28;20491;-65
2021/08/20 03:20:14;;;;;;;1.17;0.80;;;24.50;52.90;;;;;;5031732;28;20022;-64
2021/08/20 03:22:40;;;;;;;1.83;0.90;;;24.50;52.90;;;;;;5046586;28;20178;-65
2021/08/20 03:25:06;;;;;;;1.20;0.90;;;24.50;52.90;;;;;;5040492;28;20429;-65
2021/08/20 03:27:32;;;;;;;1.67;1.00;;;24.50;52.90;;;;;;5046307;28;20029;-67
2021/08/20 03:29:57;;;;;;;1.17;0.80;;;24.50;52.90;;;;;;5046254;28;20025;-65
2021/08/20 03:32:23;;;;;;;1.27;0.70;;;24.50;52.90;;;;;;5045992;28;20056;-64
2021/08/20 03:34:50;;;;;;;0.88;0.77;;;24.40;52.80;;;;;;5041034;28;20037;-64
2021/08/20 03:37:15;;;;;;;1.33;0.88;;;24.50;52.90;;;;;;5043516;28;20025;-68
2021/08/20 03:39:41;;;;;;;1.00;0.80;;;24.50;52.90;;;;;;5040000;28;20033;-67
2021/08/20 03:42:07;;;;;;;1.10;0.80;;;24.50;52.90;;;;;;5044046;28;20118;-64
2021/08/20 03:44:32;;;;;;;1.08;0.80;;;24.50;52.90;;;;;;5044490;28;20033;-64
2021/08/20 03:46:58;;;;;;;0.65;0.60;;;24.40;52.80;;;;;;5045747;28;20067;-63
2021/08/20 03:49:24;;;;;;;2.15;0.80;;;24.40;52.90;;;;;;5034847;28;20029;-65
2021/08/20 03:51:49;;;;;;;1.20;0.82;;;24.40;52.80;;;;;;5041318;28;20122;-63
2021/08/20 03:54:15;;;;;;;1.00;0.70;;;24.40;52.90;;;;;;5044503;28;20033;-64
2021/08/20 03:56:41;;;;;;;1.77;0.90;;;24.40;52.90;;;;;;5043995;28;20384;-63
2021/08/20 03:59:06;;;;;;;1.48;0.80;;;24.40;52.80;;;;;;5038513;28;20060;-64
2021/08/20 04:01:32;;;;;;;1.52;0.90;;;24.40;52.90;;;;;;5047644;28;20122;-63
2021/08/20 04:03:58;;;;;;;1.25;0.80;;;24.40;52.90;;;;;;5045116;28;20021;-67
2021/08/20 04:06:23;;;;;;;1.02;0.80;;;24.40;52.90;;;;;;5037036;28;20033;-64
2021/08/20 04:08:49;;;;;;;1.30;0.80;;;24.40;52.90;;;;;;5035391;28;20457;-62
2021/08/20 04:11:15;;;;;;;1.98;1.08;;;24.40;52.90;;;;;;5030370;28;20021;-64
2021/08/20 04:13:40;;;;;;;1.08;0.80;;;24.40;52.90;;;;;;5046985;28;20519;-68
2021/08/20 04:16:06;;;;;;;1.23;0.80;;;24.40;52.90;;;;;;5044754;28;20032;-68
2021/08/20 04:18:32;;;;;;;1.67;1.00;;;24.40;52.90;;;;;;5041768;28;20025;-64
2021/08/20 04:20:58;;;;;;;1.00;0.80;;;24.40;52.90;;;;;;5031585;28;20034;-68
2021/08/20 04:23:23;;;;;;;1.23;0.80;;;24.40;52.90;;;;;;5044668;28;20067;-65
2021/08/20 04:25:49;;;;;;;1.38;0.90;;;24.40;52.90;;;;;;5044538;28;20494;-68
2021/08/20 04:28:15;;;;;;;0.98;0.80;;;24.40;52.90;;;;;;5042740;28;20028;-68
2021/08/20 04:30:40;;;;;;;1.20;0.85;;;24.40;52.90;;;;;;5040888;28;20083;-66
2021/08/20 04:33:06;;;;;;;0.95;0.75;;;24.40;52.90;;;;;;5045089;28;20076;-64
2021/08/20 04:35:31;;;;;;;1.33;0.80;;;24.40;53.00;;;;;;5045374;28;20025;-62
2021/08/20 04:37:57;;;;;;;1.08;0.70;;;24.40;53.40;;;;;;5044514;28;20137;-65
2021/08/20 04:40:23;;;;;;;1.10;0.80;;;24.30;52.90;;;;;;5040063;28;20021;-65
2021/08/20 04:42:49;;;;;;;0.93;0.80;;;24.30;52.90;;;;;;5039543;28;20086;-69
2021/08/20 04:45:16;;;;;;;0.90;0.73;;;24.30;52.90;;;;;;5039294;28;20029;-62
2021/08/20 04:47:45;;;;;;;0.73;0.70;;;24.30;52.90;;;;;;5046801;28;20075;-67
2021/08/20 04:50:12;;;;;;;0.90;0.75;;;24.40;53.00;;;;;;5040285;28;20056;-67
2021/08/20 04:52:39;;;;;;;1.20;0.80;;;24.30;52.90;;;;;;5039239;28;20112;-65
2021/08/20 04:55:05;;;;;;;1.10;0.77;;;24.30;52.90;;;;;;5038929;28;20048;-65
2021/08/20 04:57:31;;;;;;;0.98;0.70;;;24.30;52.90;;;;;;5044578;28;20022;-64
2021/08/20 04:59:58;;;;;;;1.00;0.70;;;24.30;52.90;;;;;;5044610;28;20094;-68
2021/08/20 05:02:24;;;;;;;1.42;0.82;;;24.30;52.90;;;;;;5044836;28;20033;-62
2021/08/20 05:04:50;;;;;;;1.33;0.82;;;24.30;52.90;;;;;;5040327;28;20025;-65
2021/08/20 05:07:16;;;;;;;1.20;0.80;;;24.30;53.00;;;;;;5038894;28;20021;-65
2021/08/20 05:09:41;;;;;;;1.13;0.80;;;24.30;52.90;;;;;;5033033;28;20029;-65
2021/08/20 05:12:12;;;;;;;1.00;0.90;;;24.30;52.90;;;;;;5046762;28;20037;-62
2021/08/20 05:14:38;;;;;;;1.17;0.73;;;24.30;52.90;;;;;;5042655;28;20063;-64
2021/08/20 05:17:03;;;;;;;1.25;0.80;;;24.30;52.90;;;;;;5040764;28;20024;-62
2021/08/20 05:19:29;;;;;;;1.15;0.80;;;24.30;52.90;;;;;;5043307;28;20416;-65
2021/08/20 05:21:55;;;;;;;0.82;0.77;;;24.30;53.00;;;;;;5038518;28;20135;-68
2021/08/20 05:24:20;;;;;;;0.85;0.70;;;24.30;52.90;;;;;;5038390;28;20038;-64
2021/08/20 05:26:46;;;;;;;1.00;0.70;;;24.30;53.00;;;;;;5044726;28;20029;-65
2021/08/20 05:29:11;;;;;;;0.82;0.70;;;24.30;53.00;;;;;;5041559;28;20028;-64
2021/08/20 05:31:37;;;;;;;1.23;0.80;;;24.30;53.00;;;;;;5043958;28;20022;-65
2021/08/20 05:34:03;;;;;;;0.60;0.60;;;24.30;53.00;;;;;;5037619;28;20485;-64
2021/08/20 05:36:28;;;;;;;1.15;0.88;;;24.30;53.00;;;;;;5057253;28;20041;-64
2021/08/20 05:38:54;;;;;;;0.93;0.80;;;24.30;53.00;;;;;;5039212;28;20319;-63
2021/08/20 05:41:20;;;;;;;1.23;0.80;;;24.30;53.00;;;;;;5045600;28;20033;-66
2021/08/20 05:43:46;;;;;;;0.93;0.80;;;24.30;53.00;;;;;;5048221;28;20038;-65
2021/08/20 05:46:13;;;;;;;1.23;0.70;;;24.30;53.00;;;;;;5042664;28;20029;-63
2021/08/20 05:48:39;;;;;;;1.23;0.80;;;24.30;53.00;;;;;;5043492;28;20441;-64
2021/08/20 05:51:05;;;;;;;0.80;0.70;;;24.30;53.00;;;;;;5046173;28;20055;-64
2021/08/20 05:53:31;;;;;;;0.82;0.70;;;24.20;53.50;;;;;;5044276;28;20059;-65
2021/08/20 05:55:57;;;;;;;1.00;0.73;;;24.30;53.10;;;;;;5049098;28;20037;-61
2021/08/20 05:58:22;;;;;;;1.00;0.70;;;24.20;53.00;;;;;;5047089;28;20098;-65
2021/08/20 06:00:49;;;;;;;1.27;0.95;;;24.30;53.10;;;;;;5038706;28;20048;-62
2021/08/20 06:03:21;;;;;;;1.20;0.80;;;24.20;53.00;;;;;;5040573;28;20021;-64
2021/08/20 06:05:47;;;;;;;0.65;0.60;;;24.30;53.00;;;;;;5048281;28;20052;-66
2021/08/20 06:08:13;;;;;;;1.10;0.80;;;24.30;53.50;;;;;;5049569;28;20048;-64
2021/08/20 06:10:39;;;;;;;1.33;0.80;;;24.20;53.00;;;;;;5032529;28;20029;-65
2021/08/20 06:13:04;;;;;;;0.80;0.77;;;24.30;53.00;;;;;;5044711;28;20037;-67
2021/08/20 06:15:30;;;;;;;1.05;0.82;;;24.20;53.00;;;;;;5042361;28;20737;-65
2021/08/20 06:17:55;;;;;;;0.68;0.60;;;24.20;53.10;;;;;;5047227;28;20776;-65
2021/08/20 06:20:21;;;;;;;0.77;0.77;;;24.20;53.00;;;;;;5041931;28;20021;-64
2021/08/20 06:22:47;;;;;;;1.17;0.90;;;24.20;53.00;;;;;;5046268;28;20108;-65
2021/08/20 06:25:13;;;;;;;1.05;0.73;;;24.20;53.00;;;;;;5048484;28;20072;-64
2021/08/20 06:27:38;;;;;;;1.23;0.90;;;24.20;53.00;;;;;;5037889;28;20071;-65
2021/08/20 06:30:05;;;;;;;1.48;0.82;;;24.20;53.00;;;;;;5049403;28;20194;-65
2021/08/20 06:32:30;;;;;;;0.82;0.70;;;24.20;53.00;;;;;;5038345;28;20083;-65
2021/08/20 06:34:56;;;;;;;0.75;0.70;;;24.20;53.10;;;;;;5031745;28;20124;-66
2021/08/20 06:37:22;;;;;;;0.95;0.70;;;24.20;53.10;;;;;;5045901;28;20194;-66
2021/08/20 06:39:48;;;;;;;1.00;0.80;;;24.20;53.10;;;;;;5047934;28;20542;-67
2021/08/20 06:42:15;;;;;;;1.00;0.80;;;24.20;53.10;;;;;;5044382;28;20033;-65
2021/08/20 06:44:40;;;;;;;0.98;0.77;;;24.20;53.00;;;;;;5048663;28;20025;-66
2021/08/20 06:47:06;;;;;;;0.85;0.80;;;24.20;53.00;;;;;;5041055;28;20036;-65
2021/08/20 06:49:31;;;;;;;0.88;0.70;;;24.20;53.00;;;;;;5044306;28;20078;-65
2021/08/20 06:51:57;;;;;;;0.80;0.68;;;24.20;53.00;;;;;;5046616;28;20020;-62
2021/08/20 06:54:23;;;;;;;1.30;0.80;;;24.10;53.00;;;;;;5033644;28;20508;-64
2021/08/20 06:56:48;;;;;;;1.17;0.85;;;24.20;53.00;;;;;;5043915;28;20025;-63
2021/08/20 06:59:14;;;;;;;0.80;0.80;;;24.20;53.00;;;;;;5040276;28;20460;-66
2021/08/20 07:01:39;;;;;;;1.17;0.70;;;24.20;53.00;;;;;;5045431;28;20033;-63
2021/08/20 07:04:05;;;;;;;1.50;0.80;;;24.10;53.00;;;;;;5031341;28;20088;-64
2021/08/20 07:06:31;;;;;;;0.85;0.77;;;24.10;53.00;;;;;;5045792;28;20025;-64
2021/08/20 07:08:56;;;;;;;0.98;0.80;;;24.20;53.50;;;;;;5036281;28;20401;-66
2021/08/20 07:11:24;;;;;;;1.23;0.90;;;24.20;53.10;;;;;;5038324;28;20025;-66
2021/08/20 07:13:50;;;;;;;1.10;0.70;;;24.20;53.00;;;;;;5029100;28;20172;-66
2021/08/20 07:16:16;;;;;;;0.70;0.70;;;24.10;53.00;;;;;;5031322;28;20037;-65
2021/08/20 07:18:42;;;;;;;1.75;1.00;;;24.10;53.00;;;;;;5031574;28;20048;-67
2021/08/20 07:21:08;;;;;;;1.08;0.80;;;24.10;53.00;;;;;;5036022;28;20028;-63
2021/08/20 07:23:34;;;;;;;0.80;0.70;;;24.10;53.00;;;;;;5045980;28;20025;-65
2021/08/20 07:26:01;;;;;;;0.70;0.63;;;24.10;53.00;;;;;;5049174;28;20088;-64
2021/08/20 07:28:27;;;;;;;0.70;0.70;;;24.10;53.00;;;;;;5039314;28;20495;-65
2021/08/20 07:30:54;;;;;;;0.95;0.70;;;24.10;53.00;;;;;;5040636;28;20029;-65
2021/08/20 07:33:19;;;;;;;0.98;0.73;;;24.10;53.00;;;;;;5033424;28;20104;-65
2021/08/20 07:35:45;;;;;;;1.08;0.98;;;24.10;53.00;;;;;;5046548;28;20183;-67
2021/08/20 07:38:11;;;;;;;1.10;0.80;;;24.10;53.00;;;;;;5043627;28;20032;-65
2021/08/20 07:40:36;;;;;;;1.05;0.88;;;24.10;53.00;;;;;;5042410;28;20617;-64
2021/08/20 07:43:02;;;;;;;0.95;0.75;;;24.10;53.00;;;;;;5040060;28;20123;-65
2021/08/20 07:45:29;;;;;;;0.85;0.73;;;24.10;53.00;;;;;;5047658;28;20033;-63
2021/08/20 07:47:54;;;;;;;1.08;0.73;;;24.10;53.00;;;;;;5031365;28;20529;-63
2021/08/20 07:50:20;;;;;;;1.52;0.90;;;24.10;53.00;;;;;;5046731;28;20197;-64
2021/08/20 07:52:46;;;;;;;1.25;0.80;;;24.10;53.00;;;;;;5055912;28;20128;-65
2021/08/20 07:55:12;;;;;;;1.05;0.80;;;24.10;53.00;;;;;;5044356;28;20105;-66
2021/08/20 07:57:45;;;;;;;0.98;0.85;;;24.10;53.00;;;;;;5042929;28;20040;-65
2021/08/20 08:00:12;;;;;;;1.38;0.90;;;24.10;53.10;;;;;;5039878;28;20041;-63
2021/08/20 08:02:37;;;;;;;1.00;0.73;;;24.10;53.00;;;;;;5044139;28;20040;-62
2021/08/20 08:05:03;;;;;;;1.50;1.00;;;24.10;53.00;;;;;;5044875;28;20021;-65
2021/08/20 08:07:29;;;;;;;0.95;0.85;;;24.10;53.00;;;;;;5043967;28;20040;-66
2021/08/20 08:09:54;;;;;;;1.25;0.80;;;24.10;53.00;;;;;;5040004;28;20393;-63
2021/08/20 08:12:20;;;;;;;1.10;0.80;;;24.10;53.60;;;;;;5035103;28;20045;-63
2021/08/20 08:14:45;;;;;;;1.02;0.80;;;24.10;53.00;;;;;;5039983;28;20057;-66
2021/08/20 08:17:11;;;;;;;1.20;0.90;;;24.10;53.10;;;;;;5036183;28;20033;-64
2021/08/20 08:19:37;;;;;;;1.02;0.80;;;24.10;53.10;;;;;;5031031;28;20071;-64
2021/08/20 08:22:02;;;;;;;1.27;0.93;;;24.10;53.10;;;;;;5038783;28;20029;-62
2021/08/20 08:24:29;;;;;;;1.58;0.90;;;24.10;53.10;;;;;;5031474;28;20029;-67
2021/08/20 08:26:55;;;;;;;0.98;0.80;;;24.10;53.10;;;;;;5035802;28;20473;-65
2021/08/20 08:29:21;;;;;;;1.50;0.90;;;24.10;53.20;;;;;;5046176;28;20032;-62
2021/08/20 08:31:47;;;;;;;1.05;0.90;;;24.10;53.60;;;;;;5042932;28;20033;-62
2021/08/20 08:34:13;;;;;;;1.38;0.85;;;24.10;53.20;;;;;;5043923;28;20539;-64
2021/08/20 08:36:38;;;;;;;0.80;0.70;;;24.10;53.20;;;;;;5044998;28;20095;-63
2021/08/20 08:39:04;;;;;;;1.05;0.90;;;24.10;53.20;;;;;;5042269;28;20658;-66
2021/08/20 08:41:32;;;;;;;1.40;0.90;;;24.10;53.20;;;;;;5043709;28;20029;-66
2021/08/20 08:44:01;;;;;;;1.35;0.73;;;24.10;53.20;;;;;;5044611;28;20039;-64
2021/08/20 08:46:29;;;;;;;1.15;0.80;;;24.10;53.20;;;;;;5046893;28;20023;-65
2021/08/20 08:48:55;;;;;;;1.52;0.73;;;24.10;53.20;;;;;;5028684;28;20164;-62
2021/08/20 08:51:21;;;;;;;2.28;0.93;;;24.10;53.30;;;;;;5038470;28;20123;-63
2021/08/20 08:53:48;;;;;;;1.63;1.00;;;24.10;53.30;;;;;;5039086;28;20171;-64
2021/08/20 08:56:20;;;;;;;1.67;0.90;;;24.10;53.40;;;;;;5033480;28;20033;-61
2021/08/20 08:58:46;;;;;;;1.40;1.00;;;24.10;53.40;;;;;;5041699;28;20089;-64
2021/08/20 09:01:33;;;;;;;1.38;1.00;;;24.10;53.40;;;;;;5044858;28;20025;-64
2021/08/20 09:04:13;;;;;;;1.73;1.08;;;24.10;54.00;;;;;;5036554;28;20040;-67
2021/08/20 09:06:53;;;;;;;1.92;1.20;;;24.10;53.50;;;;;;5033753;28;20040;-65
2021/08/20 09:09:20;;;;;;;0.93;0.80;;;24.10;53.50;;;;;;5035196;28;20033;-67
2021/08/20 09:11:50;;;;;;;1.17;0.77;;;24.10;53.50;;;;;;5041296;28;20519;-63
2021/08/20 09:14:17;;;;;;;1.17;0.90;;;24.10;53.50;;;;;;5035719;28;20434;-63
2021/08/20 09:16:46;;;;;;;1.95;0.90;;;24.10;53.50;;;;;;5044929;28;20028;-65
2021/08/20 09:19:13;;;;;;;1.25;0.90;;;24.10;53.50;;;;;;5049475;28;20038;-63
2021/08/20 09:21:40;;;;;;;1.27;0.95;;;24.10;53.60;;;;;;5048587;28;20155;-67
2021/08/20 09:24:33;;;;;;;2.22;1.20;;;24.10;53.60;;;;;;5048263;28;22455;-63
2021/08/20 09:27:13;;;;;;;2.70;1.10;;;24.10;53.60;;;;;;5044319;28;20025;-65
2021/08/20 09:30:02;;;;;;;1.95;1.08;;;24.10;53.60;;;;;;5053910;28;20064;-63
2021/08/20 09:32:28;;;;;;;1.90;1.00;;;24.10;53.60;;;;;;5037543;28;20041;-65
2021/08/20 09:34:57;;;;;;;1.85;1.00;;;24.10;53.70;;;;;;5041843;28;20025;-66
2021/08/20 09:37:27;;;;;;;1.23;0.90;;;24.10;53.70;;;;;;5049631;28;20388;-62
2021/08/20 09:39:59;;;;;;;1.50;1.00;;;24.10;53.70;;;;;;5044571;28;20108;-63
2021/08/20 09:42:25;;;;;;;2.13;0.90;;;24.10;53.70;;;;;;5032824;28;20046;-65
2021/08/20 09:45:23;;;;;;;1.30;0.90;;;24.10;53.70;;;;;;5045417;28;20103;-64
2021/08/20 09:47:51;;;;;;;1.70;1.10;;;24.10;54.20;;;;;;5026608;28;20402;-62
2021/08/20 09:50:20;;;;;;;1.75;1.17;;;24.10;53.70;;;;;;5038237;28;20369;-64
2021/08/20 09:52:46;;;;;;;1.45;0.95;;;24.10;53.70;;;;;;5050854;28;20021;-63
2021/08/20 09:55:12;;;;;;;2.03;1.15;;;24.10;53.70;;;;;;5042186;28;20029;-64
2021/08/20 09:57:38;;;;;;;2.50;1.17;;;24.10;53.70;;;;;;5040841;28;20099;-64
2021/08/20 10:00:08;;;;;;;1.50;1.00;;;24.10;53.70;;;;;;5047844;28;20537;-66
2021/08/20 10:02:37;;;;;;;1.90;1.10;;;24.10;53.70;;;;;;5049766;28;20512;-63
2021/08/20 10:05:04;;;;;;;1.75;1.23;;;24.10;53.70;;;;;;5052017;28;20017;-63
2021/08/20 10:07:33;;;;;;;1.63;1.00;;;24.10;53.70;;;;;;5050094;28;20029;-65
2021/08/20 10:10:00;;;;;;;2.25;1.00;;;24.10;53.70;;;;;;5047527;28;20481;-64
2021/08/20 10:12:26;;;;;;;1.73;1.10;;;24.10;53.70;;;;;;5047087;28;20037;-64
2021/08/20 10:14:53;;;;;;;1.50;1.05;;;24.10;53.70;;;;;;5037103;28;20022;-62
2021/08/20 10:17:20;;;;;;;1.73;1.10;;;24.10;53.60;;;;;;5043314;28;20025;-63
2021/08/20 10:19:50;;;;;;;1.55;0.93;;;24.10;53.70;;;;;;5048570;28;20516;-65
2021/08/20 10:22:16;;;;;;;1.98;1.02;;;24.10;53.70;;;;;;5050683;28;20072;-64
2021/08/20 10:24:42;;;;;;;2.03;1.20;;;24.10;53.70;;;;;;5047800;28;20024;-64
2021/08/20 10:27:10;;;;;;;1.73;0.98;;;24.10;53.70;;;;;;5040424;28;20302;-63
2021/08/20 10:29:40;;;;;;;1.63;1.05;;;24.10;53.70;;;;;;5044823;28;20108;-65
2021/08/20 10:32:07;;;;;;;1.98;0.90;;;24.20;53.80;;;;;;5033092;28;20029;-64
2021/08/20 10:34:39;;;;;;;1.85;1.00;;;24.20;53.70;;;;;;5037509;28;20029;-64
2021/08/20 10:37:07;;;;;;;1.83;1.10;;;24.20;53.60;;;;;;5042321;28;20044;-65
2021/08/20 10:39:34;;;;;;;1.73;0.90;;;24.20;53.70;;;;;;5039514;28;20501;-63
2021/08/20 10:42:12;;;;;;;1.65;0.98;;;24.20;53.70;;;;;;5027277;28;20041;-65
2021/08/20 10:44:38;;;;;;;1.92;1.00;;;24.20;53.70;;;;;;5046700;28;20420;-65
2021/08/20 10:47:04;;;;;;;1.50;0.95;;;24.20;53.60;;;;;;5041604;28;20024;-62
2021/08/20 10:49:41;;;;;;;1.80;1.05;;;24.20;53.60;;;;;;5044655;28;20029;-64
2021/08/20 10:52:07;;;;;;;1.77;1.00;;;24.20;53.60;;;;;;5043375;28;20018;-64
2021/08/20 10:54:33;;;;;;;1.00;0.90;;;24.30;53.60;;;;;;5044460;28;20071;-63
2021/08/20 10:57:03;;;;;;;1.80;0.90;;;24.20;53.50;;;;;;5037554;28;20111;-65
2021/08/20 10:59:44;;;;;;;1.90;1.02;;;24.20;53.50;;;;;;5038300;28;20366;-64
2021/08/20 11:02:18;;;;;;;1.50;0.90;;;24.30;53.50;;;;;;5048961;28;20037;-64
2021/08/20 11:05:00;;;;;;;1.38;0.98;;;24.30;53.70;;;;;;5036443;28;20029;-65
2021/08/20 11:07:34;;;;;;;1.48;1.00;;;24.30;53.70;;;;;;5029687;28;20030;-64
2021/08/20 11:10:26;;;;;;;1.33;1.00;;;24.30;53.70;;;;;;5044019;28;20431;-64
2021/08/20 11:12:55;;;;;;;1.17;0.90;;;24.30;53.70;;;;;;5061718;28;20052;-64
2021/08/20 11:15:24;;;;;;;2.00;1.00;;;24.30;53.60;;;;;;5046685;28;20048;-64
2021/08/20 11:17:51;;;;;;;1.38;0.90;;;24.30;53.60;;;;;;5045058;28;20824;-64
2021/08/20 11:20:28;;;;;;;1.77;1.08;;;24.30;53.60;;;;;;5045034;28;20044;-64
2021/08/20 11:23:13;;;;;;;1.27;0.90;;;24.30;53.70;;;;;;5042726;28;20107;-64
2021/08/20 11:25:43;;;;;;;1.60;1.00;;;24.30;53.60;;;;;;5045444;28;20472;-64
2021/08/20 11:28:20;;;;;;;;;;;24.30;53.60;;;;;;5046104;28;20530;-64
2021/08/20 11:30:57;;;;;;;1.45;1.00;;;24.30;53.70;;;;;;5045284;28;19951;-64
2021/08/20 11:33:35;;;;;;;1.98;1.00;;;24.30;53.60;;;;;;5045703;28;20055;-64
2021/08/20 11:36:07;;;;;;;1.20;0.80;;;24.30;53.50;;;;;;5039673;28;20024;-64
2021/08/20 11:39:02;;;;;;;1.40;0.98;;;24.30;53.60;;;;;;5046038;28;20032;-64
2021/08/20 11:41:37;;;;;;;1.00;0.80;;;24.30;53.50;;;;;;5041965;28;20045;-64
2021/08/20 11:44:06;;;;;;;2.15;1.02;;;24.30;53.50;;;;;;5043363;28;20037;-65
2021/08/20 11:46:39;;;;;;;1.38;1.00;;;24.30;53.60;;;;;;5044489;28;20119;-64
2021/08/20 11:49:06;;;;;;;1.15;0.85;;;24.30;53.60;;;;;;5044741;28;20024;-64
2021/08/20 11:51:40;;;;;;;1.42;1.00;;;24.30;53.60;;;;;;5033260;28;20089;-64
2021/08/20 11:54:11;;;;;;;1.35;0.82;;;24.30;53.60;;;;;;5039742;28;20263;-64
2021/08/20 11:56:47;;;;;;;1.63;0.90;;;24.40;53.60;;;;;;5042599;28;20029;-63
2021/08/20 11:59:13;;;;;;;1.50;1.00;;;24.40;53.60;;;;;;5041666;28;20033;-64
2021/08/20 12:01:40;;;;;;;1.15;0.88;;;24.30;53.60;;;;;;5045270;28;20021;-64
2021/08/20 12:04:07;;;;;;;1.15;0.90;;;24.40;53.70;;;;;;5046131;28;20036;-65
2021/08/20 12:06:34;;;;;;;1.38;0.82;;;24.30;53.70;;;;;;5046481;28;20441;-65
2021/08/20 12:09:11;;;;;;;1.27;0.90;;;24.40;53.80;;;;;;5039391;28;20056;-65
2021/08/20 12:11:38;;;;;;;1.02;0.90;;;24.40;53.80;;;;;;5033824;28;20385;-65
2021/08/20 12:14:03;;;;;;;1.67;1.00;;;24.40;53.80;;;;;;5039452;28;20199;-65
2021/08/20 12:16:42;;;;;;;1.45;1.00;;;24.40;53.80;;;;;;5046117;28;20128;-64
2021/08/20 12:19:23;;;;;;;1.45;1.00;;;24.40;53.90;;;;;;5045804;28;20429;-64
2021/08/20 12:22:06;;;;;;;2.22;1.05;;;24.40;54.40;;;;;;5052361;28;20029;-65
2021/08/20 12:24:31;;;;;;;1.70;0.90;;;24.40;53.80;;;;;;5045989;28;20024;-65
2021/08/20 12:27:18;;;;;;;1.83;0.90;;;24.40;53.80;;;;;;5043673;28;20039;-64
2021/08/20 12:30:07;;;;;;;1.38;1.00;;;24.40;53.80;;;;;;5045265;28;20086;-65
2021/08/20 12:32:35;;;;;;;1.58;1.00;;;24.50;53.90;;;;;;5052628;28;20140;-65
2021/08/20 12:35:04;;;;;;;1.70;1.10;;;24.50;53.90;;;;;;5062480;28;20037;-64
2021/08/20 12:37:31;;;;;;;1.13;1.00;;;24.50;53.90;;;;;;5041125;28;20062;-65
2021/08/20 12:40:11;;;;;;;1.63;0.90;;;24.50;53.90;;;;;;5044458;28;20036;-65
2021/08/20 12:42:46;;;;;;;1.25;0.90;;;24.50;53.90;;;;;;5041054;28;20482;-65
2021/08/20 12:45:18;;;;;;;1.40;0.90;;;24.50;53.80;;;;;;5039876;28;20028;-65
2021/08/20 12:47:46;;;;;;;1.05;0.82;;;24.50;53.80;;;;;;5045200;28;20036;-65
2021/08/20 12:50:18;;;;;;;1.08;0.90;;;24.50;53.80;;;;;;5043984;28;20017;-65
2021/08/20 12:52:44;;;;;;;1.85;1.00;;;24.50;53.80;;;;;;5048452;28;20025;-65